Time;durP1;ratioP1;P1;durP2;ratioP2;P2;SDS_P1;SDS_P2;PMS_P1;PMS_P2;Temp;Humidity;BMP_temperature;BMP_pressure;BME280_temperature;BME280_humidity;BME280_pressure;Samples;Min_cycle;Max_cycle;Signal;HPM_P1;HPM_P2
2021/12/18 00:01:15;;;;;;;6.53;5.07;;;;;;;;;;6217848;23;20324;-87
2021/12/18 00:03:41;;;;;;;9.18;5.97;;;;;;;;;;6217534;23;20013;-87
2021/12/18 00:06:07;;;;;;;8.68;5.72;;;;;;;;;;6217273;23;20004;-87
2021/12/18 00:08:32;;;;;;;7.45;5.43;;;;;;;;;;6215941;23;20506;-87
2021/12/18 00:10:58;;;;;;;8.70;6.07;;;;;;;;;;6217520;23;20005;-87
2021/12/18 00:13:24;;;;;;;8.45;5.75;;;;;;;;;;6217664;23;20032;-87
2021/12/18 00:15:49;;;;;;;8.20;6.32;;;;;;;;;;6217481;23;20079;-88
2021/12/18 00:18:15;;;;;;;10.82;5.97;;;;;;;;;;6215908;23;20501;-87
2021/12/18 00:20:41;;;;;;;9.15;5.80;;;;;;;;;;6217354;23;20420;-88
2021/12/18 00:23:06;;;;;;;9.30;6.18;;;;;;;;;;6217278;23;20071;-87
2021/12/18 00:25:32;;;;;;;9.05;5.90;;;;;;;;;;6215589;23;20008;-86
2021/12/18 00:27:58;;;;;;;8.75;6.22;;;;;;;;;;6215912;23;20080;-86
2021/12/18 00:30:24;;;;;;;8.50;5.93;;;;;;;;;;6217144;23;20009;-87
2021/12/18 00:32:50;;;;;;;11.25;7.00;;;;;;;;;;6217478;23;20004;-88
2021/12/18 00:35:17;;;;;;;8.10;6.22;;;;;;;;;;6217452;23;20127;-87
2021/12/18 00:37:43;;;;;;;9.80;5.72;;;;;;;;;;6217477;23;20008;-87
2021/12/18 00:40:16;;;;;;;10.07;6.30;;;;;;;;;;6215600;23;20012;-88
2021/12/18 00:42:48;;;;;;;9.20;5.97;;;;;;;;;;6217021;23;20021;-88
2021/12/18 00:45:15;;;;;;;7.70;5.75;;;;;;;;;;6217668;23;20017;-88
2021/12/18 00:47:43;;;;;;;8.35;6.43;;;;;;;;;;6217198;23;20375;-88
2021/12/18 00:50:13;;;;;;;8.18;5.40;;;;;;;;;;6216911;23;20336;-88
2021/12/18 00:52:39;;;;;;;7.43;5.05;;;;;;;;;;6217448;23;20004;-88
2021/12/18 00:55:05;;;;;;;8.73;5.35;;;;;;;;;;6216940;23;20005;-88
2021/12/18 00:57:31;;;;;;;6.85;4.10;;;;;;;;;;6217044;23;20046;-88
2021/12/18 01:00:01;;;;;;;5.75;4.30;;;;;;;;;;6216934;23;20128;-88
2021/12/18 01:02:28;;;;;;;5.32;3.75;;;;;;;;;;6217501;23;20020;-87
2021/12/18 01:04:54;;;;;;;4.88;3.92;;;;;;;;;;6218115;23;20001;-87
2021/12/18 01:07:19;;;;;;;4.72;4.10;;;;;;;;;;6216757;23;20001;-87
2021/12/18 01:12:24;;;;;;;5.65;4.50;;;;;;;;;;6227091;23;20039;-88
2021/12/18 01:15:09;;;;;;;5.38;3.90;;;;;;;;;;6216710;23;20333;-88
2021/12/18 01:22:50;;;;;;;5.28;3.88;;;;;;;;;;6216884;23;20027;-87
2021/12/18 01:25:18;;;;;;;6.43;4.20;;;;;;;;;;6216620;23;20340;-87
2021/12/18 01:27:44;;;;;;;5.63;3.60;;;;;;;;;;6215204;23;20000;-88
2021/12/18 01:30:12;;;;;;;5.30;3.83;;;;;;;;;;6216856;23;20306;-88
2021/12/18 01:32:37;;;;;;;5.20;3.58;;;;;;;;;;6215158;23;20083;-86
2021/12/18 01:35:04;;;;;;;4.25;3.75;;;;;;;;;;6216716;23;20029;-87
2021/12/18 01:37:29;;;;;;;5.63;3.60;;;;;;;;;;6217019;23;20007;-86
2021/12/18 01:39:55;;;;;;;4.97;3.30;;;;;;;;;;6216493;23;20009;-88
2021/12/18 01:53:07;;;;;;;4.55;3.58;;;;;;;;;;6216476;23;20035;-88
2021/12/18 01:55:35;;;;;;;5.18;3.28;;;;;;;;;;6216580;23;20005;-88
2021/12/18 01:58:01;;;;;;;4.00;3.63;;;;;;;;;;6216536;23;20011;-88
2021/12/18 02:00:36;;;;;;;3.55;3.10;;;;;;;;;;6216316;23;20359;-87
2021/12/18 02:03:03;;;;;;;5.10;3.50;;;;;;;;;;6216438;23;20004;-88
2021/12/18 02:05:29;;;;;;;4.85;4.07;;;;;;;;;;6216653;23;20005;-88
2021/12/18 02:07:54;;;;;;;5.80;4.25;;;;;;;;;;6216397;23;20377;-87
2021/12/18 02:10:26;;;;;;;5.38;4.20;;;;;;;;;;6214833;23;20332;-84
2021/12/18 02:21:11;;;;;;;5.97;3.63;;;;;;;;;;6216431;23;20016;-86
2021/12/18 02:23:37;;;;;;;6.40;3.78;;;;;;;;;;6216302;23;20428;-87
2021/12/18 02:26:03;;;;;;;5.43;3.40;;;;;;;;;;6216529;23;20040;-87
2021/12/18 02:28:29;;;;;;;5.40;3.97;;;;;;;;;;6214814;23;20000;-87
2021/12/18 02:30:56;;;;;;;5.80;3.85;;;;;;;;;;6216467;23;20007;-88
2021/12/18 02:33:22;;;;;;;4.53;4.10;;;;;;;;;;6216342;23;20028;-87
2021/12/18 02:35:51;;;;;;;8.45;5.00;;;;;;;;;;6216555;23;20012;-88
2021/12/18 02:38:23;;;;;;;7.15;4.35;;;;;;;;;;6215958;23;20001;-88
2021/12/18 02:43:37;;;;;;;5.78;4.22;;;;;;;;;;6219222;23;20020;-84
2021/12/18 02:46:07;;;;;;;;;;;;;;;;;;6216505;23;20005;-87
2021/12/18 02:48:40;;;;;;;5.70;3.97;;;;;;;;;;6216160;23;19908;-86
2021/12/18 02:51:09;;;;;;;4.53;3.55;;;;;;;;;;6216296;23;20005;-88
2021/12/18 02:53:37;;;;;;;3.78;3.20;;;;;;;;;;6216572;23;20004;-87
2021/12/18 02:56:06;;;;;;;4.60;2.65;;;;;;;;;;6216273;23;20011;-86
2021/12/18 02:58:37;;;;;;;3.10;2.80;;;;;;;;;;6216058;23;20009;-85
2021/12/18 03:01:05;;;;;;;3.80;3.10;;;;;;;;;;6216101;23;20451;-87
2021/12/18 03:03:34;;;;;;;4.03;2.70;;;;;;;;;;6216059;23;20004;-87
2021/12/18 03:06:29;;;;;;;2.80;2.50;;;;;;;;;;6216208;23;20082;-88
2021/12/18 03:27:24;;;;;;;2.95;2.50;;;;;;;;;;6220418;23;20087;-87
2021/12/18 03:29:49;;;;;;;3.45;2.33;;;;;;;;;;6217586;23;20020;-87
2021/12/18 03:32:15;;;;;;;2.85;2.40;;;;;;;;;;6217095;23;20072;-88
2021/12/18 03:34:41;;;;;;;3.42;2.60;;;;;;;;;;6217888;23;20016;-88
2021/12/18 03:37:07;;;;;;;3.83;3.10;;;;;;;;;;6217817;23;20416;-88
2021/12/18 03:39:32;;;;;;;3.97;2.67;;;;;;;;;;6217712;23;20008;-86
2021/12/18 03:41:58;;;;;;;3.35;2.90;;;;;;;;;;6217925;23;20442;-89
2021/12/18 03:44:23;;;;;;;3.85;2.97;;;;;;;;;;6217797;23;20005;-88
2021/12/18 03:46:50;;;;;;;5.13;2.42;;;;;;;;;;6217899;23;20001;-88
2021/12/18 03:49:15;;;;;;;3.78;2.30;;;;;;;;;;6217475;23;20000;-88
2021/12/18 03:51:41;;;;;;;3.65;2.33;;;;;;;;;;6217741;23;20439;-88
2021/12/18 03:54:07;;;;;;;2.78;2.35;;;;;;;;;;6216204;23;20001;-89
2021/12/18 03:56:32;;;;;;;2.55;2.30;;;;;;;;;;6217725;23;20119;-87
2021/12/18 03:58:58;;;;;;;2.90;2.60;;;;;;;;;;6215892;23;20424;-85
2021/12/18 04:01:24;;;;;;;3.38;2.60;;;;;;;;;;6217618;23;20007;-87
2021/12/18 04:03:50;;;;;;;2.97;2.28;;;;;;;;;;6217570;23;20054;-88
2021/12/18 04:06:16;;;;;;;3.35;2.58;;;;;;;;;;6217601;23;20328;-86
2021/12/18 04:08:41;;;;;;;3.70;2.65;;;;;;;;;;6217294;23;20011;-87
2021/12/18 04:11:07;;;;;;;3.85;2.85;;;;;;;;;;6217616;23;20012;-85
2021/12/18 04:13:32;;;;;;;4.25;2.83;;;;;;;;;;6217651;23;20004;-87
2021/12/18 04:15:58;;;;;;;4.65;3.03;;;;;;;;;;6217299;23;20072;-88
2021/12/18 04:18:24;;;;;;;3.95;2.80;;;;;;;;;;6217332;23;20331;-87
2021/12/18 04:20:50;;;;;;;3.00;2.70;;;;;;;;;;6215799;23;20075;-84
2021/12/18 04:23:15;;;;;;;4.05;2.70;;;;;;;;;;6217558;23;20008;-84
2021/12/18 04:25:41;;;;;;;5.13;3.00;;;;;;;;;;6217220;23;20000;-84
2021/12/18 04:28:07;;;;;;;3.10;2.47;;;;;;;;;;6217344;23;20020;-85
2021/12/18 04:30:33;;;;;;;3.60;2.45;;;;;;;;;;6217305;23;20044;-85
2021/12/18 04:32:58;;;;;;;3.45;2.50;;;;;;;;;;6215631;23;20328;-85
2021/12/18 04:35:24;;;;;;;4.20;2.53;;;;;;;;;;6216401;23;20001;-85
2021/12/18 04:37:49;;;;;;;6.50;3.85;;;;;;;;;;6216905;23;20011;-85
2021/12/18 04:40:15;;;;;;;4.22;3.15;;;;;;;;;;6215299;23;20009;-85
2021/12/18 04:42:41;;;;;;;5.53;4.38;;;;;;;;;;6216888;23;20062;-85
2021/12/18 04:45:07;;;;;;;5.43;3.95;;;;;;;;;;6217292;23;20361;-88
2021/12/18 04:47:32;;;;;;;4.97;4.47;;;;;;;;;;6217042;23;20000;-87
2021/12/18 04:49:58;;;;;;;4.55;4.13;;;;;;;;;;6217155;23;20031;-88
2021/12/18 04:52:24;;;;;;;6.63;4.07;;;;;;;;;;6216813;23;20042;-88
2021/12/18 04:54:50;;;;;;;4.82;3.65;;;;;;;;;;6217336;23;20005;-87
2021/12/18 04:57:15;;;;;;;5.55;3.80;;;;;;;;;;6217210;23;20412;-88
2021/12/18 04:59:44;;;;;;;4.78;3.22;;;;;;;;;;6217078;23;20037;-88
2021/12/18 05:02:13;;;;;;;4.30;3.55;;;;;;;;;;6215065;23;20016;-88
2021/12/18 05:04:38;;;;;;;6.10;3.70;;;;;;;;;;6216909;23;20001;-88
2021/12/18 05:07:04;;;;;;;5.75;3.53;;;;;;;;;;6217086;23;20012;-88
2021/12/18 05:09:29;;;;;;;5.10;3.20;;;;;;;;;;6216963;23;20072;-88
2021/12/18 05:11:55;;;;;;;8.15;3.58;;;;;;;;;;6216786;23;20009;-88
2021/12/18 05:14:22;;;;;;;5.90;3.90;;;;;;;;;;6215598;23;20011;-85
2021/12/18 05:16:48;;;;;;;5.70;3.50;;;;;;;;;;6217278;23;20075;-85
2021/12/18 05:19:14;;;;;;;5.40;3.67;;;;;;;;;;6240037;23;20008;-85
2021/12/18 05:21:39;;;;;;;3.47;2.80;;;;;;;;;;6216590;23;20050;-84
2021/12/18 05:24:06;;;;;;;3.83;3.15;;;;;;;;;;6216730;23;20032;-85
2021/12/18 05:26:31;;;;;;;3.38;2.83;;;;;;;;;;6215457;23;20321;-86
2021/12/18 05:28:56;;;;;;;4.88;2.70;;;;;;;;;;6216371;23;20223;-85
2021/12/18 05:31:22;;;;;;;5.65;3.17;;;;;;;;;;6214970;23;20013;-84
2021/12/18 05:33:52;;;;;;;5.07;3.40;;;;;;;;;;6215080;23;20001;-92
2021/12/18 05:36:32;;;;;;;6.03;3.40;;;;;;;;;;6217239;23;20008;-87
2021/12/18 05:39:07;;;;;;;3.40;3.05;;;;;;;;;;6216395;23;20056;-83
2021/12/18 05:41:33;;;;;;;4.63;3.22;;;;;;;;;;6215366;23;20013;-83
2021/12/18 05:43:59;;;;;;;4.55;3.28;;;;;;;;;;6216509;23;20052;-84
2021/12/18 05:46:25;;;;;;;3.80;3.30;;;;;;;;;;6216296;23;20004;-85
2021/12/18 05:48:50;;;;;;;3.72;3.13;;;;;;;;;;6214972;23;20051;-84
2021/12/18 05:51:16;;;;;;;5.43;3.40;;;;;;;;;;6216526;23;20061;-85
2021/12/18 05:53:41;;;;;;;3.58;3.28;;;;;;;;;;6216612;23;20000;-85
2021/12/18 05:56:07;;;;;;;3.95;3.33;;;;;;;;;;6216242;23;20008;-84
2021/12/18 05:58:33;;;;;;;4.90;3.30;;;;;;;;;;6215968;23;20490;-84
2021/12/18 06:00:59;;;;;;;7.05;3.75;;;;;;;;;;6216523;23;20000;-89
2021/12/18 06:03:24;;;;;;;6.00;3.58;;;;;;;;;;6216366;23;20015;-84
2021/12/18 06:05:49;;;;;;;5.97;4.45;;;;;;;;;;6216538;23;20005;-85
2021/12/18 06:08:15;;;;;;;8.20;4.60;;;;;;;;;;6216496;23;20135;-85
2021/12/18 06:10:42;;;;;;;3.67;3.30;;;;;;;;;;6216518;23;20000;-85
2021/12/18 06:13:07;;;;;;;7.50;5.13;;;;;;;;;;6215929;23;20004;-84
2021/12/18 06:15:33;;;;;;;6.15;4.15;;;;;;;;;;6216478;23;20420;-85
2021/12/18 06:17:59;;;;;;;6.07;4.25;;;;;;;;;;6216262;23;20000;-88
2021/12/18 06:20:26;;;;;;;6.93;3.88;;;;;;;;;;6216292;23;20009;-89
2021/12/18 06:22:52;;;;;;;4.90;3.80;;;;;;;;;;6216283;23;20001;-88
2021/12/18 06:25:18;;;;;;;6.95;4.25;;;;;;;;;;6214889;23;20012;-87
2021/12/18 06:27:43;;;;;;;6.03;3.50;;;;;;;;;;6215978;23;20000;-82
2021/12/18 06:30:10;;;;;;;9.10;4.78;;;;;;;;;;6216296;23;20016;-81
2021/12/18 06:32:36;;;;;;;7.25;4.20;;;;;;;;;;6216262;23;20008;-83
2021/12/18 06:35:01;;;;;;;6.25;4.07;;;;;;;;;;6216284;23;20012;-81
2021/12/18 06:37:27;;;;;;;6.90;4.20;;;;;;;;;;6217945;23;20471;-87
2021/12/18 06:39:52;;;;;;;5.70;3.80;;;;;;;;;;6216339;23;20012;-89
2021/12/18 06:42:18;;;;;;;5.95;3.88;;;;;;;;;;6215072;23;20416;-89
2021/12/18 06:44:44;;;;;;;7.35;4.63;;;;;;;;;;6216656;23;20005;-83
2021/12/18 06:47:09;;;;;;;8.82;4.35;;;;;;;;;;6216348;23;20007;-83
2021/12/18 06:49:35;;;;;;;5.05;3.40;;;;;;;;;;6214708;23;20412;-83
2021/12/18 06:52:01;;;;;;;5.70;4.05;;;;;;;;;;6216862;23;20004;-83
2021/12/18 06:54:26;;;;;;;6.15;4.20;;;;;;;;;;6224514;22;20020;-85
2021/12/18 06:56:51;;;;;;;6.43;4.40;;;;;;;;;;6246139;23;20008;-89
2021/12/18 06:59:17;;;;;;;7.00;4.72;;;;;;;;;;6246037;23;20008;-83
2021/12/18 07:01:43;;;;;;;6.15;4.50;;;;;;;;;;6220242;23;20062;-83
2021/12/18 07:04:09;;;;;;;10.52;5.95;;;;;;;;;;6248148;23;20004;-83
2021/12/18 07:06:34;;;;;;;10.30;5.18;;;;;;;;;;6248643;23;20042;-83
2021/12/18 07:08:59;;;;;;;8.30;5.10;;;;;;;;;;6248264;23;20004;-83
2021/12/18 07:11:25;;;;;;;7.65;5.50;;;;;;;;;;6221663;23;20004;-83
2021/12/18 07:13:50;;;;;;;6.97;5.25;;;;;;;;;;6248730;23;20070;-83
2021/12/18 07:16:16;;;;;;;8.95;6.90;;;;;;;;;;6248399;23;20415;-84
2021/12/18 07:18:41;;;;;;;9.00;6.57;;;;;;;;;;6221468;23;20004;-84
2021/12/18 07:21:07;;;;;;;9.82;7.15;;;;;;;;;;6248421;23;20031;-88
2021/12/18 07:23:33;;;;;;;7.90;6.03;;;;;;;;;;6248382;23;20004;-84
2021/12/18 07:25:58;;;;;;;9.40;6.15;;;;;;;;;;6248212;23;20327;-83
2021/12/18 07:28:24;;;;;;;6.78;5.85;;;;;;;;;;6248336;23;20008;-84
2021/12/18 07:30:49;;;;;;;9.50;6.35;;;;;;;;;;6248316;23;20352;-83
2021/12/18 07:33:15;;;;;;;14.30;7.68;;;;;;;;;;6248240;23;20012;-84
2021/12/18 07:35:41;;;;;;;11.45;7.28;;;;;;;;;;6248363;23;20004;-83
2021/12/18 07:38:07;;;;;;;13.65;7.93;;;;;;;;;;6249679;23;20432;-84
2021/12/18 07:40:33;;;;;;;9.35;6.60;;;;;;;;;;6221668;23;20020;-84
2021/12/18 07:42:59;;;;;;;15.07;6.60;;;;;;;;;;6248466;23;20454;-83
2021/12/18 07:45:25;;;;;;;9.35;6.30;;;;;;;;;;6248096;23;20004;-83
2021/12/18 07:47:50;;;;;;;9.50;6.72;;;;;;;;;;6248017;23;20004;-84
2021/12/18 07:50:20;;;;;;;9.68;6.47;;;;;;;;;;6247987;23;20004;-83
2021/12/18 07:52:49;;;;;;;12.13;6.13;;;;;;;;;;6221013;23;20012;-83
2021/12/18 07:55:16;;;;;;;8.15;6.55;;;;;;;;;;6221022;23;20016;-83
2021/12/18 07:57:43;;;;;;;9.57;6.43;;;;;;;;;;6220791;23;20096;-84
2021/12/18 08:00:12;;;;;;;10.43;7.65;;;;;;;;;;6247791;23;20007;-84
2021/12/18 08:02:38;;;;;;;11.03;7.53;;;;;;;;;;6248824;23;20008;-83
2021/12/18 08:05:04;;;;;;;11.43;7.45;;;;;;;;;;6248361;23;20020;-83
2021/12/18 08:07:29;;;;;;;12.77;7.28;;;;;;;;;;6247962;23;20000;-83
2021/12/18 08:09:55;;;;;;;11.63;6.57;;;;;;;;;;6247680;23;20014;-83
2021/12/18 08:12:20;;;;;;;11.55;7.30;;;;;;;;;;6247133;23;20450;-83
2021/12/18 08:14:45;;;;;;;13.00;7.57;;;;;;;;;;6248011;23;20007;-83
2021/12/18 08:17:11;;;;;;;11.30;7.28;;;;;;;;;;6247760;23;19996;-83
2021/12/18 08:19:36;;;;;;;14.57;8.25;;;;;;;;;;6247588;23;20004;-83
2021/12/18 08:22:02;;;;;;;10.55;7.50;;;;;;;;;;6247457;23;20004;-84
2021/12/18 08:24:29;;;;;;;15.57;8.77;;;;;;;;;;6248311;23;20028;-83
2021/12/18 08:26:54;;;;;;;12.25;8.30;;;;;;;;;;6220766;23;20008;-84
2021/12/18 08:29:20;;;;;;;18.33;9.00;;;;;;;;;;6247415;23;20420;-84
2021/12/18 08:31:46;;;;;;;13.05;9.00;;;;;;;;;;6247557;23;20001;-83
2021/12/18 08:34:12;;;;;;;14.35;8.23;;;;;;;;;;6221377;23;20004;-84
2021/12/18 08:36:38;;;;;;;11.77;8.30;;;;;;;;;;6220569;23;20095;-84
2021/12/18 08:39:03;;;;;;;14.27;9.55;;;;;;;;;;6247135;23;20004;-84
2021/12/18 08:41:29;;;;;;;17.58;10.38;;;;;;;;;;6247632;23;20004;-84
2021/12/18 08:43:55;;;;;;;16.00;10.05;;;;;;;;;;6220664;23;20008;-84
2021/12/18 08:46:21;;;;;;;13.13;10.27;;;;;;;;;;6247435;23;20000;-85
2021/12/18 08:48:47;;;;;;;20.63;13.90;;;;;;;;;;6247238;23;20008;-84
2021/12/18 08:51:13;;;;;;;23.88;15.70;;;;;;;;;;6247601;23;20055;-84
2021/12/18 08:53:39;;;;;;;23.05;15.30;;;;;;;;;;6247368;23;20032;-84
2021/12/18 08:56:05;;;;;;;19.83;14.52;;;;;;;;;;6247221;23;20457;-84
2021/12/18 08:58:31;;;;;;;24.80;13.93;;;;;;;;;;6220427;23;20069;-84
2021/12/18 09:00:56;;;;;;;19.50;13.15;;;;;;;;;;6247432;23;20359;-85
2021/12/18 09:03:22;;;;;;;22.25;13.23;;;;;;;;;;6247509;23;20075;-84
2021/12/18 09:05:48;;;;;;;18.92;13.25;;;;;;;;;;6247243;23;20423;-85
2021/12/18 09:08:14;;;;;;;17.70;13.13;;;;;;;;;;6247104;23;20071;-84
2021/12/18 09:10:39;;;;;;;19.40;13.13;;;;;;;;;;6247393;23;20024;-85
2021/12/18 09:13:05;;;;;;;17.33;12.35;;;;;;;;;;6247217;23;20071;-84
2021/12/18 09:15:30;;;;;;;22.83;13.90;;;;;;;;;;6248702;23;20000;-84
2021/12/18 09:17:56;;;;;;;17.73;12.70;;;;;;;;;;6247243;23;20000;-87
2021/12/18 09:20:21;;;;;;;18.63;12.90;;;;;;;;;;6247157;23;20038;-87
2021/12/18 09:22:47;;;;;;;17.65;11.88;;;;;;;;;;6246858;23;20004;-86
2021/12/18 09:25:13;;;;;;;19.23;12.40;;;;;;;;;;6248106;23;19999;-89
2021/12/18 09:27:38;;;;;;;17.85;12.40;;;;;;;;;;6247229;23;20384;-88
2021/12/18 09:30:07;;;;;;;17.80;12.55;;;;;;;;;;6247539;23;20010;-89
2021/12/18 09:32:33;;;;;;;16.70;12.07;;;;;;;;;;6220251;23;20062;-87
2021/12/18 09:34:58;;;;;;;19.35;12.55;;;;;;;;;;6246922;23;20004;-85
2021/12/18 09:37:24;;;;;;;18.25;12.18;;;;;;;;;;6220028;23;19996;-84
2021/12/18 09:39:49;;;;;;;16.23;11.50;;;;;;;;;;6246975;23;20087;-85
2021/12/18 09:42:15;;;;;;;18.67;12.13;;;;;;;;;;6247535;23;20027;-85
2021/12/18 09:44:40;;;;;;;16.95;12.63;;;;;;;;;;6246963;23;20003;-86
2021/12/18 09:47:06;;;;;;;16.77;12.43;;;;;;;;;;6220061;23;20386;-86
2021/12/18 09:49:33;;;;;;;15.63;11.90;;;;;;;;;;6247106;23;20028;-85
2021/12/18 09:52:00;;;;;;;15.75;11.50;;;;;;;;;;6246884;23;20000;-85
2021/12/18 09:54:25;;;;;;;15.32;11.20;;;;;;;;;;6246613;23;20020;-85
2021/12/18 09:56:52;;;;;;;14.80;11.68;;;;;;;;;;6247137;23;20081;-86
2021/12/18 09:59:19;;;;;;;14.52;11.23;;;;;;;;;;6246571;23;20087;-85
2021/12/18 10:01:45;;;;;;;13.57;11.32;;;;;;;;;;6247306;23;20004;-85
2021/12/18 10:04:27;;;;;;;15.18;12.73;;;;;;;;;;6247041;23;20034;-85
2021/12/18 10:06:53;;;;;;;17.48;13.05;;;;;;;;;;6247180;23;20394;-83
2021/12/18 10:09:21;;;;;;;14.40;12.90;;;;;;;;;;6246600;23;20416;-86
2021/12/18 10:11:55;;;;;;;15.50;13.85;;;;;;;;;;6246737;23;20309;-87
2021/12/18 10:14:34;;;;;;;13.70;12.20;;;;;;;;;;6246332;23;20067;-88
2021/12/18 10:16:59;;;;;;;16.02;14.32;;;;;;;;;;6246494;23;20057;-85
2021/12/18 10:19:31;;;;;;;16.05;14.38;;;;;;;;;;6246455;23;20004;-89
2021/12/18 10:22:06;;;;;;;17.00;15.13;;;;;;;;;;6246798;23;20000;-89
2021/12/18 10:24:35;;;;;;;16.67;14.70;;;;;;;;;;6219798;23;20010;-88
2021/12/18 10:27:01;;;;;;;16.52;14.77;;;;;;;;;;6246791;23;20005;-85
2021/12/18 10:29:35;;;;;;;16.60;14.98;;;;;;;;;;6219559;23;20333;-84
2021/12/18 10:32:12;;;;;;;16.23;14.63;;;;;;;;;;6247080;23;20000;-83
2021/12/18 10:34:40;;;;;;;16.17;14.57;;;;;;;;;;6246283;23;20083;-85
2021/12/18 10:37:17;;;;;;;16.30;14.60;;;;;;;;;;6246364;23;20447;-84
2021/12/18 10:39:53;;;;;;;15.75;14.07;;;;;;;;;;6246290;23;20007;-84
2021/12/18 10:42:29;;;;;;;15.90;14.25;;;;;;;;;;6246819;23;20000;-84
2021/12/18 10:45:03;;;;;;;16.08;14.48;;;;;;;;;;6246409;23;20008;-84
2021/12/18 10:48:01;;;;;;;16.52;14.82;;;;;;;;;;6246590;23;20000;-85
2021/12/18 10:50:43;;;;;;;18.33;16.42;;;;;;;;;;6219587;23;20018;-84
2021/12/18 10:53:11;;;;;;;16.52;14.93;;;;;;;;;;6246576;23;20008;-84
2021/12/18 10:55:42;;;;;;;16.55;14.90;;;;;;;;;;6246448;23;20427;-84
2021/12/18 10:58:11;;;;;;;16.63;14.93;;;;;;;;;;6246431;23;20004;-84
2021/12/18 11:00:38;;;;;;;17.00;15.20;;;;;;;;;;6246476;23;20004;-85
2021/12/18 11:03:45;;;;;;;18.65;15.30;;;;;;;;;;6246592;23;20000;-84
2021/12/18 11:06:20;;;;;;;17.13;15.40;;;;;;;;;;6218777;23;20010;-85
2021/12/18 11:09:06;;;;;;;16.73;14.73;;;;;;;;;;6246892;23;20146;-85
2021/12/18 11:14:31;;;;;;;16.15;14.55;;;;;;;;;;6246376;23;20004;-85
2021/12/18 11:16:59;;;;;;;16.27;14.02;;;;;;;;;;6246377;23;19997;-85
2021/12/18 11:19:27;;;;;;;19.20;15.00;;;;;;;;;;6246148;23;19996;-84
2021/12/18 11:21:58;;;;;;;18.05;14.38;;;;;;;;;;6246244;23;20004;-84
2021/12/18 11:24:44;;;;;;;16.58;14.70;;;;;;;;;;6246429;23;20000;-84
2021/12/18 11:27:12;;;;;;;16.67;14.80;;;;;;;;;;6246115;23;20058;-83
2021/12/18 11:29:44;;;;;;;16.48;14.18;;;;;;;;;;6246523;23;20000;-84
2021/12/18 11:32:16;;;;;;;19.38;14.90;;;;;;;;;;6246219;23;20010;-86
2021/12/18 11:34:43;;;;;;;16.67;14.60;;;;;;;;;;6246313;23;20007;-87
2021/12/18 11:37:11;;;;;;;18.30;15.55;;;;;;;;;;6246284;23;20000;-84
2021/12/18 11:39:38;;;;;;;17.85;15.20;;;;;;;;;;6246355;23;20026;-84
2021/12/18 11:42:04;;;;;;;17.90;14.98;;;;;;;;;;6220018;23;20000;-88
2021/12/18 11:44:36;;;;;;;17.15;14.73;;;;;;;;;;6219604;23;20443;-88
2021/12/18 11:47:24;;;;;;;18.33;15.30;;;;;;;;;;6248180;23;20015;-87
2021/12/18 11:49:50;;;;;;;17.90;15.32;;;;;;;;;;6247948;23;20007;-88
2021/12/18 11:52:16;;;;;;;20.27;16.17;;;;;;;;;;6248031;23;20000;-85
2021/12/18 11:54:52;;;;;;;20.08;16.45;;;;;;;;;;6248140;23;20008;-86
2021/12/18 11:57:49;;;;;;;24.05;19.48;;;;;;;;;;6248960;23;20000;-86
2021/12/18 12:00:40;;;;;;;19.50;16.27;;;;;;;;;;6221441;23;20012;-87
2021/12/18 12:03:08;;;;;;;29.10;19.65;;;;;;;;;;6221060;23;20012;-83
2021/12/18 12:05:45;;;;;;;20.60;17.45;;;;;;;;;;6248136;23;20000;-83
2021/12/18 12:08:27;;;;;;;20.85;16.83;;;;;;;;;;6247404;23;20011;-83
2021/12/18 12:11:16;;;;;;;19.80;15.07;;;;;;;;;;6247668;23;20000;-84
2021/12/18 12:14:01;;;;;;;20.10;14.27;;;;;;;;;;6247798;23;20000;-84
2021/12/18 12:16:45;;;;;;;17.13;13.63;;;;;;;;;;6220702;23;20012;-83
2021/12/18 12:19:18;;;;;;;17.02;13.68;;;;;;;;;;6220729;23;20005;-83
2021/12/18 12:21:55;;;;;;;15.75;13.55;;;;;;;;;;6220915;23;20056;-83
2021/12/18 12:24:23;;;;;;;17.08;13.82;;;;;;;;;;6221397;23;20383;-84
2021/12/18 12:26:50;;;;;;;17.02;13.02;;;;;;;;;;6247598;23;20078;-84
2021/12/18 12:29:17;;;;;;;12.57;9.50;;;;;;;;;;6247486;23;20062;-85
2021/12/18 12:31:59;;;;;;;9.80;7.72;;;;;;;;;;6247727;23;20028;-83
2021/12/18 12:34:33;;;;;;;8.93;7.72;;;;;;;;;;6247511;23;20071;-83
2021/12/18 12:37:24;;;;;;;11.23;7.70;;;;;;;;;;6247773;23;20023;-85
2021/12/18 12:39:55;;;;;;;10.55;8.30;;;;;;;;;;6247929;23;20008;-83
2021/12/18 12:42:20;;;;;;;10.52;7.90;;;;;;;;;;6247607;23;20327;-82
2021/12/18 12:44:57;;;;;;;10.77;8.30;;;;;;;;;;6247501;23;20000;-83
2021/12/18 12:47:26;;;;;;;9.40;7.97;;;;;;;;;;6247410;23;20437;-83
2021/12/18 12:49:57;;;;;;;10.52;7.93;;;;;;;;;;6220518;23;20004;-84
2021/12/18 12:52:25;;;;;;;10.95;8.48;;;;;;;;;;6220481;23;20066;-84
2021/12/18 12:55:06;;;;;;;11.13;8.23;;;;;;;;;;6247372;23;20039;-84
2021/12/18 12:57:33;;;;;;;9.55;7.80;;;;;;;;;;6247539;23;20011;-83
2021/12/18 12:59:58;;;;;;;15.38;11.13;;;;;;;;;;6247204;23;20062;-82
2021/12/18 13:02:28;;;;;;;13.45;11.43;;;;;;;;;;6247456;23;20439;-83
2021/12/18 13:05:04;;;;;;;;;;;;;;;;;;6247636;23;20010;-83
2021/12/18 13:07:30;;;;;;;11.55;9.07;;;;;;;;;;6247357;23;19914;-82
2021/12/18 13:09:56;;;;;;;11.43;8.95;;;;;;;;;;6247271;23;20007;-82
2021/12/18 13:12:21;;;;;;;13.25;9.20;;;;;;;;;;6246863;23;20304;-82
2021/12/18 13:14:47;;;;;;;12.80;8.60;;;;;;;;;;6247449;23;20019;-82
2021/12/18 13:17:29;;;;;;;11.82;8.70;;;;;;;;;;6247598;23;20004;-82
2021/12/18 13:20:00;;;;;;;14.18;9.18;;;;;;;;;;6220398;23;20372;-83
2021/12/18 13:22:31;;;;;;;12.27;9.18;;;;;;;;;;6247380;23;20000;-84
2021/12/18 13:25:03;;;;;;;12.82;9.05;;;;;;;;;;6220177;23;20008;-86
2021/12/18 13:27:28;;;;;;;12.98;9.95;;;;;;;;;;6247328;23;20075;-87
2021/12/18 13:30:20;;;;;;;12.88;9.27;;;;;;;;;;6247322;23;20373;-86
2021/12/18 13:33:01;;;;;;;14.45;9.88;;;;;;;;;;6247366;23;20004;-87
2021/12/18 13:35:29;;;;;;;14.38;9.55;;;;;;;;;;6247626;23;20388;-88
2021/12/18 13:38:12;;;;;;;13.02;9.40;;;;;;;;;;6246949;23;20008;-82
2021/12/18 13:40:43;;;;;;;14.27;9.50;;;;;;;;;;6247069;23;20007;-82
2021/12/18 13:43:24;;;;;;;16.95;10.18;;;;;;;;;;6247034;23;20027;-82
2021/12/18 13:46:02;;;;;;;13.52;10.32;;;;;;;;;;6247113;23;20356;-82
2021/12/18 13:48:31;;;;;;;12.13;9.70;;;;;;;;;;6246805;23;20004;-83
2021/12/18 13:51:16;;;;;;;13.02;9.27;;;;;;;;;;6246813;23;20416;-83
2021/12/18 13:53:54;;;;;;;13.65;9.32;;;;;;;;;;6247526;23;20004;-83
2021/12/18 13:56:25;;;;;;;15.75;9.85;;;;;;;;;;6247958;23;20455;-82
2021/12/18 13:58:50;;;;;;;13.15;9.55;;;;;;;;;;6247461;23;20004;-86
2021/12/18 14:01:24;;;;;;;15.80;10.45;;;;;;;;;;6247330;23;20097;-82
2021/12/18 14:04:11;;;;;;;12.55;9.25;;;;;;;;;;6247061;23;19992;-83
2021/12/18 14:06:42;;;;;;;14.60;9.70;;;;;;;;;;6246098;23;20008;-83
2021/12/18 14:09:13;;;;;;;19.77;10.18;;;;;;;;;;6246754;23;20360;-83
2021/12/18 14:11:52;;;;;;;13.77;9.82;;;;;;;;;;6219894;23;20012;-82
2021/12/18 14:14:17;;;;;;;12.80;9.35;;;;;;;;;;6246723;23;20399;-83
2021/12/18 14:16:51;;;;;;;16.65;9.30;;;;;;;;;;6246723;23;20026;-82
2021/12/18 14:19:26;;;;;;;17.65;10.40;;;;;;;;;;6219790;23;20011;-82
2021/12/18 14:21:53;;;;;;;14.88;9.32;;;;;;;;;;6246906;23;20441;-82
2021/12/18 14:24:19;;;;;;;15.77;10.15;;;;;;;;;;6246938;23;20019;-82
2021/12/18 14:26:58;;;;;;;15.15;10.02;;;;;;;;;;6246684;23;20027;-83
2021/12/18 14:29:26;;;;;;;15.65;10.43;;;;;;;;;;6246663;23;20069;-83
2021/12/18 14:31:55;;;;;;;16.55;10.70;;;;;;;;;;6246657;23;20000;-82
2021/12/18 14:34:26;;;;;;;13.48;10.10;;;;;;;;;;6246753;23;19992;-83
2021/12/18 14:37:08;;;;;;;15.95;10.30;;;;;;;;;;6246772;23;20012;-83
2021/12/18 14:39:50;;;;;;;16.20;10.15;;;;;;;;;;6246274;23;20431;-83
2021/12/18 14:42:27;;;;;;;15.23;10.55;;;;;;;;;;6246832;23;20015;-84
2021/12/18 14:44:58;;;;;;;18.27;10.98;;;;;;;;;;6246824;23;20000;-83
2021/12/18 14:47:34;;;;;;;14.90;10.40;;;;;;;;;;6246699;23;20004;-82
2021/12/18 14:49:59;;;;;;;16.65;10.20;;;;;;;;;;6246271;23;20080;-83
2021/12/18 14:52:26;;;;;;;15.23;10.18;;;;;;;;;;6219513;23;20036;-82
2021/12/18 14:54:58;;;;;;;14.77;9.40;;;;;;;;;;6246372;23;20015;-82
2021/12/18 14:57:29;;;;;;;13.75;9.82;;;;;;;;;;6246694;23;20000;-81
2021/12/18 15:00:17;;;;;;;15.23;10.13;;;;;;;;;;6219682;23;20038;-82
2021/12/18 15:02:53;;;;;;;13.40;9.38;;;;;;;;;;6246373;23;20431;-82
2021/12/18 15:05:18;;;;;;;15.68;9.95;;;;;;;;;;6219723;23;20427;-82
2021/12/18 15:08:05;;;;;;;14.25;9.10;;;;;;;;;;6246388;23;19996;-83
2021/12/18 15:10:51;;;;;;;15.73;9.68;;;;;;;;;;6246942;23;20040;-82
2021/12/18 15:13:21;;;;;;;17.23;10.25;;;;;;;;;;6246721;23;20000;-82
2021/12/18 15:15:47;;;;;;;14.77;9.98;;;;;;;;;;6246547;23;20000;-82
2021/12/18 15:18:13;;;;;;;15.73;9.30;;;;;;;;;;6246793;23;20000;-82
2021/12/18 15:20:39;;;;;;;13.73;8.65;;;;;;;;;;6246416;23;20071;-81
2021/12/18 15:23:04;;;;;;;16.15;8.95;;;;;;;;;;6248554;23;20031;-80
2021/12/18 15:25:30;;;;;;;16.67;9.70;;;;;;;;;;6248436;23;20323;-82
2021/12/18 15:27:55;;;;;;;23.40;11.85;;;;;;;;;;6221308;23;20015;-81
2021/12/18 15:30:22;;;;;;;20.15;11.23;;;;;;;;;;6248364;23;20000;-80
2021/12/18 15:32:48;;;;;;;26.63;14.18;;;;;;;;;;6248368;23;20027;-79
2021/12/18 15:35:13;;;;;;;18.52;10.57;;;;;;;;;;6248313;23;20412;-80